Time;durP1;ratioP1;P1;durP2;ratioP2;P2;SDS_P1;SDS_P2;PMS_P1;PMS_P2;Temp;Humidity;BMP_temperature;BMP_pressure;BME280_temperature;BME280_humidity;BME280_pressure;Samples;Min_cycle;Max_cycle;Signal;HPM_P1;HPM_P2
2023/05/29 00:01:48;;;;;;;6.20;3.30;;;;;;;16.54;63.89;100589.34;5072838;28;20048;-88
2023/05/29 00:04:21;;;;;;;6.90;3.17;;;;;;;16.48;64.17;100586.16;5073370;28;20040;-86
2023/05/29 00:07:02;;;;;;;5.75;3.35;;;;;;;16.47;64.64;100588.94;5094207;28;20032;-86
2023/05/29 00:09:29;;;;;;;8.30;3.80;;;;;;;16.47;64.79;100586.25;5081995;28;20036;-87
2023/05/29 00:11:57;;;;;;;7.53;3.85;;;;;;;16.20;65.42;100561.41;5081765;28;20045;-86
2023/05/29 00:14:25;;;;;;;7.18;3.47;;;;;;;16.28;66.28;100581.28;5065979;28;20037;-87
2023/05/29 00:17:00;;;;;;;7.15;3.60;;;;;;;16.26;66.38;100588.56;5083207;28;20048;-86
2023/05/29 00:19:32;;;;;;;;;;;;;;;16.22;67.25;100589.72;5079509;28;20357;-88
2023/05/29 00:22:04;;;;;;;8.60;3.30;;;;;;;16.12;67.69;100575.28;5094924;28;19916;-87
2023/05/29 00:24:32;;;;;;;7.53;3.45;;;;;;;16.12;67.95;100578.81;5075077;28;20036;-87
2023/05/29 00:27:06;;;;;;;5.05;3.15;;;;;;;15.92;68.04;100549.03;5056930;28;20049;-87
2023/05/29 00:29:33;;;;;;;6.40;3.15;;;;;;;16.08;68.45;100579.97;5048626;28;20465;-88
2023/05/29 00:32:00;;;;;;;6.63;3.65;;;;;;;16.03;68.82;100578.56;5048139;28;20100;-87
2023/05/29 00:34:32;;;;;;;7.83;3.83;;;;;;;15.90;68.50;100553.66;5049449;28;20072;-88
2023/05/29 00:37:01;;;;;;;;;;;;;;;15.97;69.61;100570.94;5050405;28;20105;-88
2023/05/29 00:39:40;;;;;;;6.23;3.20;;;;;;;15.94;69.83;100566.66;5051044;28;20368;-88
2023/05/29 00:42:07;;;;;;;6.15;3.47;;;;;;;15.90;69.34;100567.00;5049223;28;20056;-87
2023/05/29 00:44:36;;;;;;;7.05;3.58;;;;;;;15.90;69.34;100569.66;5049531;28;20071;-88
2023/05/29 00:47:05;;;;;;;5.68;3.45;;;;;;;15.90;69.43;100569.66;5051900;28;20041;-88
2023/05/29 00:49:36;;;;;;;5.35;3.33;;;;;;;15.87;69.11;100569.88;5035609;28;20044;-87
2023/05/29 00:52:08;;;;;;;4.78;3.60;;;;;;;15.75;69.48;100551.00;5051680;28;20048;-88
2023/05/29 00:54:36;;;;;;;6.18;3.47;;;;;;;15.73;69.33;100552.94;5048809;28;20043;-87
2023/05/29 00:57:05;;;;;;;5.32;3.13;;;;;;;15.69;69.28;100548.75;5066779;28;20041;-87
2023/05/29 00:59:34;;;;;;;6.80;3.33;;;;;;;15.68;69.19;100554.19;5081938;28;20074;-88
2023/05/29 01:02:02;;;;;;;5.78;3.50;;;;;;;15.68;69.83;100557.72;5071328;28;20108;-87
2023/05/29 01:04:49;;;;;;;7.15;3.47;;;;;;;15.48;69.83;100528.75;5073762;28;20117;-87
2023/05/29 01:07:18;;;;;;;6.47;3.38;;;;;;;15.64;70.41;100563.34;5078751;28;20036;-87
2023/05/29 01:09:46;;;;;;;9.13;3.90;;;;;;;15.71;70.38;100565.53;5079348;28;20071;-87
2023/05/29 01:12:36;;;;;;;7.03;3.42;;;;;;;15.70;70.88;100582.50;5089178;28;20469;-87
2023/05/29 01:15:32;;;;;;;6.47;2.95;;;;;;;15.62;71.97;100582.13;5073523;28;20052;-86
2023/05/29 01:18:07;;;;;;;7.43;3.72;;;;;;;15.55;72.81;100571.94;5074166;28;20071;-86
2023/05/29 01:20:46;;;;;;;7.00;3.95;;;;;;;15.51;73.70;100568.59;5073916;28;20044;-87
2023/05/29 01:23:52;;;;;;;6.50;3.33;;;;;;;15.50;73.95;100572.22;5089655;28;20052;-87
2023/05/29 01:26:51;;;;;;;5.68;3.10;;;;;;;15.46;74.38;100578.69;5072986;28;20071;-88
2023/05/29 01:29:22;;;;;;;6.60;3.55;;;;;;;15.41;74.81;100572.81;5101684;28;20043;-86
2023/05/29 01:31:53;;;;;;;6.05;3.65;;;;;;;15.34;76.26;100571.50;5112353;28;20047;-87
2023/05/29 01:34:23;;;;;;;5.95;3.53;;;;;;;15.32;76.32;100568.91;5129045;28;20432;-87
2023/05/29 01:36:49;;;;;;;4.72;3.25;;;;;;;15.27;77.34;100567.47;5113994;28;20063;-86
2023/05/29 01:39:21;;;;;;;7.82;3.72;;;;;;;15.23;78.31;100574.00;5111059;28;20046;-88
2023/05/29 01:41:51;;;;;;;5.57;3.47;;;;;;;15.21;78.67;100581.22;5071417;28;20049;-87
2023/05/29 01:44:31;;;;;;;8.88;3.53;;;;;;;14.98;80.19;100558.66;5076029;28;20545;-87
2023/05/29 01:47:12;;;;;;;6.93;3.70;;;;;;;15.02;80.81;100577.03;5094196;28;20071;-87
2023/05/29 01:49:42;;;;;;;6.90;3.70;;;;;;;14.98;81.95;100578.19;5075095;28;20068;-88
2023/05/29 01:52:28;;;;;;;6.05;3.60;;;;;;;14.86;82.17;100565.63;5075865;28;20048;-87
2023/05/29 01:55:11;;;;;;;7.47;3.80;;;;;;;14.82;83.43;100572.09;5040960;28;20071;-88
2023/05/29 01:57:43;;;;;;;8.20;3.42;;;;;;;14.80;83.71;100573.13;5074943;28;20044;-87
2023/05/29 02:00:16;;;;;;;5.57;3.00;;;;;;;14.56;84.49;100535.53;5110405;28;20035;-88
2023/05/29 02:02:56;;;;;;;7.45;4.00;;;;;;;14.58;84.63;100536.28;5115628;28;20035;-88
2023/05/29 02:05:26;;;;;;;9.30;3.92;;;;;;;14.62;84.84;100546.69;5092065;28;20524;-87
2023/05/29 02:07:53;;;;;;;6.70;3.50;;;;;;;14.45;85.09;100525.53;5126198;28;20035;-87
2023/05/29 02:10:21;;;;;;;6.47;3.70;;;;;;;14.78;84.37;100557.25;5106792;28;20047;-87
2023/05/29 02:13:08;;;;;;;7.68;3.70;;;;;;;14.80;83.96;100549.13;5109689;28;20043;-88
2023/05/29 02:15:57;;;;;;;7.38;3.53;;;;;;;14.79;83.97;100545.63;5109762;28;20046;-87
2023/05/29 02:18:27;;;;;;;5.45;3.50;;;;;;;14.81;83.57;100546.38;5111064;28;20057;-88
2023/05/29 02:21:09;;;;;;;7.13;3.53;;;;;;;14.79;83.95;100548.31;5112137;28;20039;-87
2023/05/29 02:23:43;;;;;;;6.25;3.80;;;;;;;14.77;84.41;100546.69;5087682;28;20059;-87
2023/05/29 02:26:15;;;;;;;9.63;4.47;;;;;;;14.60;83.95;100526.41;5053171;28;20036;-88
2023/05/29 02:28:46;;;;;;;6.50;3.75;;;;;;;14.76;83.30;100556.47;5076218;28;20056;-87
2023/05/29 02:31:18;;;;;;;7.30;3.50;;;;;;;14.71;83.03;100554.09;5067468;28;20049;-86
2023/05/29 02:34:11;;;;;;;6.57;3.50;;;;;;;14.65;82.61;100534.94;5050827;28;20040;-87
2023/05/29 02:36:38;;;;;;;4.70;3.17;;;;;;;14.78;82.92;100551.91;5041889;28;20059;-86
2023/05/29 02:39:06;;;;;;;5.93;3.17;;;;;;;14.76;82.64;100559.16;5042845;28;20444;-87
2023/05/29 02:41:32;;;;;;;5.93;3.15;;;;;;;14.68;82.51;100548.09;5043233;28;20040;-87
2023/05/29 02:44:01;;;;;;;5.50;3.40;;;;;;;14.63;82.48;100544.88;5042885;28;20061;-87
2023/05/29 02:46:30;;;;;;;5.10;3.30;;;;;;;14.67;83.14;100543.72;5042962;28;20051;-87
2023/05/29 02:49:00;;;;;;;6.13;3.63;;;;;;;14.77;82.93;100560.88;5041114;28;20040;-87
2023/05/29 02:51:29;;;;;;;5.28;3.08;;;;;;;14.73;82.31;100538.00;5061047;28;20112;-87
2023/05/29 02:53:58;;;;;;;6.57;3.80;;;;;;;14.79;82.38;100547.44;5043113;28;20076;-87
2023/05/29 02:56:28;;;;;;;6.38;3.42;;;;;;;14.84;82.33;100554.19;5042731;28;20107;-87
2023/05/29 02:58:55;;;;;;;6.15;3.38;;;;;;;14.75;83.23;100541.44;5058765;28;20064;-87
2023/05/29 03:01:22;;;;;;;8.00;3.40;;;;;;;14.84;83.61;100551.53;5043712;28;20139;-88
2023/05/29 03:03:52;;;;;;;5.63;3.30;;;;;;;14.68;83.30;100534.75;5044585;28;20041;-87
2023/05/29 03:06:20;;;;;;;10.88;3.85;;;;;;;14.74;84.19;100550.38;5058617;28;20063;-86
2023/05/29 03:08:47;;;;;;;6.60;3.53;;;;;;;14.74;84.88;100551.25;5046103;28;20535;-87
2023/05/29 03:11:15;;;;;;;5.13;3.60;;;;;;;14.69;85.31;100545.34;5039806;28;20072;-88
2023/05/29 03:13:41;;;;;;;6.60;3.60;;;;;;;14.65;86.24;100548.28;5042227;28;20550;-88
2023/05/29 03:16:08;;;;;;;7.57;4.00;;;;;;;14.62;86.67;100546.69;5046400;28;20059;-87
2023/05/29 03:18:35;;;;;;;5.68;3.53;;;;;;;14.78;86.69;100565.25;5030147;28;20104;-88
2023/05/29 03:21:07;;;;;;;8.65;4.30;;;;;;;14.62;87.51;100548.47;5045602;28;20045;-88
2023/05/29 03:23:34;;;;;;;7.72;3.80;;;;;;;14.72;88.26;100558.47;5045338;28;20094;-88
2023/05/29 03:26:02;;;;;;;9.98;4.20;;;;;;;14.71;88.57;100569.22;5046450;28;20083;-87
2023/05/29 03:28:30;;;;;;;7.78;4.28;;;;;;;14.66;89.11;100566.84;5041832;28;20053;-88
2023/05/29 03:30:57;;;;;;;8.82;4.05;;;;;;;14.58;89.77;100555.81;5082118;28;20155;-86
2023/05/29 03:33:28;;;;;;;9.77;4.80;;;;;;;14.58;90.60;100569.13;5083845;28;20041;-88
2023/05/29 03:35:56;;;;;;;9.05;4.05;;;;;;;14.57;91.14;100566.56;5066103;28;20078;-88
2023/05/29 03:38:25;;;;;;;9.55;4.43;;;;;;;14.58;91.45;100585.13;5083266;28;20036;-88
2023/05/29 03:40:51;;;;;;;7.93;4.10;;;;;;;14.59;92.33;100588.63;5084394;28;20052;-88
2023/05/29 03:43:23;;;;;;;9.63;4.65;;;;;;;14.57;92.64;100582.53;5067548;28;20090;-87
2023/05/29 03:45:51;;;;;;;8.30;4.38;;;;;;;14.56;93.67;100586.16;5065908;28;20408;-88
2023/05/29 03:48:21;;;;;;;8.00;4.43;;;;;;;14.55;93.93;100584.44;5066453;28;20040;-88
2023/05/29 03:50:49;;;;;;;8.20;4.43;;;;;;;14.50;93.96;100584.69;5083949;28;20052;-87
2023/05/29 03:53:16;;;;;;;7.32;4.53;;;;;;;14.54;94.94;100590.72;5065838;28;20052;-89
2023/05/29 03:55:43;;;;;;;7.78;4.40;;;;;;;14.54;95.34;100580.91;5082397;28;20040;-87
2023/05/29 03:58:12;;;;;;;10.18;4.72;;;;;;;14.53;95.45;100587.19;5065797;28;20123;-89
2023/05/29 04:00:39;;;;;;;8.15;4.00;;;;;;;14.52;96.42;100584.63;5083780;28;20458;-89
2023/05/29 04:03:09;;;;;;;5.72;4.07;;;;;;;14.57;96.50;100590.53;5065804;28;20040;-88
2023/05/29 04:05:41;;;;;;;12.27;4.85;;;;;;;14.48;97.00;100588.44;5067573;28;20052;-87
2023/05/29 04:08:08;;;;;;;7.25;4.20;;;;;;;14.50;97.87;100602.50;5102937;28;20046;-88
2023/05/29 04:10:44;;;;;;;9.40;4.28;;;;;;;14.42;98.41;100584.31;5109684;28;20082;-87
2023/05/29 04:13:11;;;;;;;9.27;4.70;;;;;;;14.47;98.85;100603.56;5109094;28;20036;-87
2023/05/29 04:15:42;;;;;;;9.63;4.72;;;;;;;14.43;99.57;100598.50;5126741;28;20048;-88
2023/05/29 04:18:11;;;;;;;8.10;4.30;;;;;;;14.24;99.87;100578.25;5108970;28;20108;-88
2023/05/29 04:20:37;;;;;;;9.63;4.60;;;;;;;14.33;99.92;100596.34;5104691;28;20052;-88
2023/05/29 04:23:05;;;;;;;10.27;4.90;;;;;;;14.44;100.00;100626.88;5068425;28;20049;-88
2023/05/29 04:25:36;;;;;;;10.07;4.90;;;;;;;14.33;100.00;100607.00;5051348;28;20045;-88
2023/05/29 04:28:03;;;;;;;14.43;5.05;;;;;;;14.47;100.00;100634.69;5064767;28;20044;-88
2023/05/29 04:30:32;;;;;;;10.50;4.25;;;;;;;14.32;100.00;100607.94;5066316;28;20048;-87
2023/05/29 04:33:00;;;;;;;10.90;5.05;;;;;;;14.47;100.00;100638.19;5066313;28;20059;-88
2023/05/29 04:35:30;;;;;;;9.60;4.93;;;;;;;14.35;100.00;100615.75;5066469;28;20052;-87
2023/05/29 04:37:57;;;;;;;9.60;4.88;;;;;;;14.37;100.00;100626.31;5066288;28;20063;-90
2023/05/29 04:40:24;;;;;;;10.80;5.03;;;;;;;14.43;100.00;100649.97;5049185;28;20055;-90
2023/05/29 04:42:53;;;;;;;8.50;5.15;;;;;;;14.43;100.00;100646.47;5065113;28;20096;-88
2023/05/29 04:45:28;;;;;;;9.20;4.75;;;;;;;14.42;100.00;100642.06;5079337;28;20041;-88
2023/05/29 04:47:55;;;;;;;10.73;5.18;;;;;;;14.43;100.00;100627.81;5098629;28;20048;-87
2023/05/29 04:50:23;;;;;;;8.05;4.60;;;;;;;14.57;100.00;100665.16;5065139;28;20063;-87
2023/05/29 04:52:51;;;;;;;8.48;4.88;;;;;;;14.59;100.00;100663.25;5078041;28;20105;-88
2023/05/29 04:55:20;;;;;;;10.60;5.07;;;;;;;14.56;100.00;100658.09;5075001;28;20422;-89
2023/05/29 04:57:54;;;;;;;9.90;4.63;;;;;;;14.61;100.00;100675.56;5072436;28;20048;-87
2023/05/29 05:00:21;;;;;;;9.40;4.60;;;;;;;14.61;100.00;100662.22;5071377;28;20045;-88
2023/05/29 05:02:50;;;;;;;11.07;5.25;;;;;;;14.69;100.00;100677.75;5074766;28;20047;-86
2023/05/29 05:05:19;;;;;;;9.23;4.83;;;;;;;14.71;100.00;100690.03;5081201;28;20040;-87
2023/05/29 05:07:49;;;;;;;8.60;4.75;;;;;;;14.61;100.00;100670.22;5077546;28;20087;-87
2023/05/29 05:10:16;;;;;;;8.02;5.30;;;;;;;14.78;100.00;100679.88;5079489;28;20032;-87
2023/05/29 05:12:46;;;;;;;9.07;4.95;;;;;;;14.81;100.00;100682.34;5054611;28;20106;-88
2023/05/29 05:15:13;;;;;;;8.50;4.43;;;;;;;14.88;100.00;100686.38;5067002;28;20436;-87
2023/05/29 05:17:40;;;;;;;10.25;5.07;;;;;;;14.73;100.00;100657.97;5067918;28;20041;-87
2023/05/29 05:20:11;;;;;;;9.13;5.43;;;;;;;14.82;100.00;100694.72;5067660;28;20068;-87
2023/05/29 05:22:55;;;;;;;10.05;4.93;;;;;;;14.88;100.00;100683.69;5070090;28;20055;-88
2023/05/29 05:25:23;;;;;;;11.73;4.80;;;;;;;14.95;100.00;100690.38;5049747;28;20071;-88
2023/05/29 05:27:53;;;;;;;10.63;4.65;;;;;;;15.00;100.00;100696.28;5067079;28;20045;-88
2023/05/29 05:30:21;;;;;;;8.82;4.55;;;;;;;15.07;100.00;100688.78;5081325;28;20036;-87
2023/05/29 05:32:58;;;;;;;9.50;5.07;;;;;;;15.19;100.00;100700.50;5082042;28;20040;-89
2023/05/29 05:35:27;;;;;;;11.47;5.03;;;;;;;15.22;100.00;100706.53;5081552;28;20110;-87
2023/05/29 05:37:58;;;;;;;9.50;4.63;;;;;;;15.14;100.00;100691.91;5047689;28;20074;-88
2023/05/29 05:40:41;;;;;;;7.95;4.90;;;;;;;15.37;99.88;100715.38;5067896;28;20055;-87
2023/05/29 05:43:10;;;;;;;8.65;4.80;;;;;;;15.36;100.00;100714.53;5064372;28;20174;-87
2023/05/29 05:45:45;;;;;;;8.23;5.30;;;;;;;15.34;99.96;100710.25;5066522;28;20050;-88
2023/05/29 05:48:12;;;;;;;9.57;4.57;;;;;;;15.45;99.94;100719.28;5061794;28;20094;-88
2023/05/29 05:50:39;;;;;;;9.27;4.38;;;;;;;15.56;100.00;100713.34;5063575;28;20450;-87
2023/05/29 05:53:09;;;;;;;8.13;4.57;;;;;;;15.65;98.10;100711.88;5047467;28;20045;-88
2023/05/29 05:55:36;;;;;;;11.35;4.57;;;;;;;15.52;97.63;100692.22;5050196;28;20066;-87
2023/05/29 05:58:02;;;;;;;10.60;4.80;;;;;;;15.68;96.59;100703.69;5064630;28;20064;-87
2023/05/29 06:00:31;;;;;;;7.75;4.57;;;;;;;15.86;95.72;100712.34;5063407;28;20131;-89
2023/05/29 06:03:00;;;;;;;11.52;5.00;;;;;;;15.94;96.94;100720.72;5064630;28;20036;-87
2023/05/29 06:05:41;;;;;;;11.65;4.78;;;;;;;16.02;95.11;100718.44;5066004;28;20071;-87
2023/05/29 06:08:09;;;;;;;7.13;4.57;;;;;;;16.24;94.00;100718.72;5047059;28;20432;-88
2023/05/29 06:10:37;;;;;;;8.45;4.72;;;;;;;16.54;93.43;100728.34;5064263;28;20052;-88
2023/05/29 06:13:04;;;;;;;8.55;4.60;;;;;;;16.80;89.75;100728.38;5063826;28;20096;-88
2023/05/29 06:15:31;;;;;;;6.88;4.72;;;;;;;17.08;86.69;100731.84;5085480;28;20105;-88
2023/05/29 06:18:00;;;;;;;8.38;4.35;;;;;;;17.40;83.60;100734.97;5066076;28;20040;-88
2023/05/29 06:20:41;;;;;;;7.55;4.30;;;;;;;17.66;82.64;100707.25;5067068;28;20051;-88
2023/05/29 06:23:22;;;;;;;6.20;4.32;;;;;;;18.04;78.07;100717.88;5063617;28;20048;-88
2023/05/29 06:25:52;;;;;;;8.18;4.40;;;;;;;18.43;75.30;100734.66;5065035;28;20054;-88
2023/05/29 06:28:20;;;;;;;8.20;4.00;;;;;;;18.76;73.78;100736.69;5051207;28;20058;-88
2023/05/29 06:30:46;;;;;;;6.00;3.92;;;;;;;19.07;71.69;100709.22;5068028;28;20627;-88
2023/05/29 06:33:15;;;;;;;8.95;4.50;;;;;;;19.61;68.84;100735.47;5050852;28;20056;-88
2023/05/29 06:35:52;;;;;;;8.05;4.03;;;;;;;19.77;64.47;100737.78;5069397;28;20463;-88
2023/05/29 06:38:18;;;;;;;7.10;4.13;;;;;;;19.82;65.65;100736.44;5070938;28;20071;-88
2023/05/29 06:40:46;;;;;;;7.65;3.90;;;;;;;19.98;64.59;100727.16;5067188;28;20036;-88
2023/05/29 06:43:13;;;;;;;7.43;4.43;;;;;;;20.05;62.87;100710.38;5065716;28;20076;-89
2023/05/29 06:45:41;;;;;;;5.85;4.05;;;;;;;20.35;63.34;100724.97;5065910;28;20053;-89
2023/05/29 06:48:08;;;;;;;7.45;4.32;;;;;;;20.61;61.63;100721.88;5065277;28;20044;-88
2023/05/29 06:50:35;;;;;;;8.93;4.07;;;;;;;21.01;61.72;100723.88;5072239;28;20061;-88
2023/05/29 06:53:03;;;;;;;9.20;4.30;;;;;;;21.25;61.37;100702.13;5073664;28;20040;-88
2023/05/29 06:55:41;;;;;;;9.55;4.60;;;;;;;21.61;54.78;100727.66;5070248;28;20119;-87
2023/05/29 06:58:10;;;;;;;5.78;3.80;;;;;;;21.32;56.84;100696.06;5068131;28;20119;-87
2023/05/29 07:00:38;;;;;;;6.50;3.67;;;;;;;21.57;57.84;100726.22;5069001;28;20047;-86
2023/05/29 07:03:23;;;;;;;8.77;4.00;;;;;;;21.87;58.94;100730.78;5088295;28;20454;-88
2023/05/29 07:06:13;;;;;;;10.20;3.95;;;;;;;21.93;56.32;100724.81;5078893;28;20040;-87
2023/05/29 07:08:42;;;;;;;7.45;3.95;;;;;;;21.94;56.44;100727.38;5069259;28;20040;-87
2023/05/29 07:11:09;;;;;;;8.15;4.05;;;;;;;21.76;52.13;100722.78;5084211;28;20080;-86
2023/05/29 07:13:43;;;;;;;8.90;4.18;;;;;;;21.72;53.66;100734.84;5069780;28;20045;-87
2023/05/29 07:16:43;;;;;;;11.15;3.90;;;;;;;21.74;51.48;100738.22;5076237;28;20366;-87
2023/05/29 07:19:51;;;;;;;6.95;4.15;;;;;;;21.32;52.66;100747.22;5087658;28;20038;-88
2023/05/29 07:22:27;;;;;;;5.85;3.97;;;;;;;21.24;55.37;100747.06;5070767;28;20496;-87
2023/05/29 07:25:10;;;;;;;;;;;;;;;21.31;54.20;100750.91;5072854;28;20044;-87
2023/05/29 07:27:44;;;;;;;6.53;3.75;;;;;;;21.40;53.09;100734.94;5064844;28;19916;-87
2023/05/29 07:30:15;;;;;;;9.88;3.90;;;;;;;21.53;53.33;100733.75;5052300;28;20051;-87
2023/05/29 07:32:45;;;;;;;7.00;4.07;;;;;;;21.96;52.67;100746.97;5050906;28;20466;-88
2023/05/29 07:35:15;;;;;;;7.05;3.50;;;;;;;22.40;51.88;100750.25;5069537;28;20051;-87
2023/05/29 07:37:58;;;;;;;8.07;3.70;;;;;;;22.53;50.17;100750.84;5047352;28;20075;-87
2023/05/29 07:40:29;;;;;;;7.03;4.05;;;;;;;22.62;51.61;100752.72;5058212;28;20044;-87
2023/05/29 07:43:02;;;;;;;9.07;4.38;;;;;;;22.49;50.64;100745.88;5036044;28;20044;-87
2023/05/29 07:45:36;;;;;;;9.35;4.03;;;;;;;22.59;49.47;100752.13;5051945;28;20053;-86
2023/05/29 07:48:17;;;;;;;;;;;;;;;22.55;52.41;100765.03;5058928;28;20082;-87
2023/05/29 07:50:48;;;;;;;7.15;3.70;;;;;;;22.69;50.51;100751.13;5047419;28;19976;-89
2023/05/29 07:53:30;;;;;;;6.05;3.53;;;;;;;22.77;47.96;100750.47;4990642;28;20034;-88
2023/05/29 07:55:59;;;;;;;6.47;3.88;;;;;;;22.66;48.90;100764.94;4999687;28;20070;-86
2023/05/29 07:58:33;;;;;;;8.75;4.00;;;;;;;22.65;50.59;100749.72;4999441;28;20056;-87
2023/05/29 08:01:00;;;;;;;6.72;3.50;;;;;;;22.57;50.10;100764.91;4992470;28;20038;-89
2023/05/29 08:03:34;;;;;;;5.30;3.58;;;;;;;22.71;49.85;100761.78;4993242;28;20069;-87
2023/05/29 08:06:01;;;;;;;8.82;3.90;;;;;;;22.71;48.93;100768.03;4994947;28;20042;-86
2023/05/29 08:08:34;;;;;;;6.82;3.83;;;;;;;22.84;48.73;100762.41;4993120;28;20137;-87
2023/05/29 08:11:07;;;;;;;6.65;3.63;;;;;;;22.89;48.11;100759.28;5015672;28;20050;-86
2023/05/29 08:13:39;;;;;;;6.07;3.85;;;;;;;23.11;50.02;100753.59;5016956;28;20114;-87
2023/05/29 08:16:08;;;;;;;6.90;3.53;;;;;;;23.37;46.90;100754.69;4994849;28;20042;-88
2023/05/29 08:18:52;;;;;;;8.68;4.00;;;;;;;23.73;48.13;100747.66;5006636;28;20106;-87
2023/05/29 08:21:32;;;;;;;6.57;3.40;;;;;;;23.76;45.99;100732.97;4993103;28;20084;-87
2023/05/29 08:24:14;;;;;;;7.50;3.72;;;;;;;23.66;44.85;100742.97;5019947;28;20083;-86
2023/05/29 08:26:56;;;;;;;7.03;3.58;;;;;;;23.37;47.27;100730.34;5072382;28;20048;-86
2023/05/29 08:29:23;;;;;;;5.95;3.60;;;;;;;23.36;46.35;100744.88;5085279;28;20055;-87
2023/05/29 08:31:58;;;;;;;6.93;3.30;;;;;;;23.37;47.15;100743.88;5088269;28;20040;-86
2023/05/29 08:34:30;;;;;;;6.40;3.63;;;;;;;23.21;46.08;100729.25;5108262;28;20048;-87
2023/05/29 08:37:14;;;;;;;7.22;3.80;;;;;;;23.45;48.04;100748.56;5106636;28;20071;-86
2023/05/29 08:39:44;;;;;;;7.43;3.55;;;;;;;23.69;46.39;100748.94;5092067;28;20044;-88
2023/05/29 08:42:33;;;;;;;5.88;3.42;;;;;;;23.73;44.86;100733.28;5107930;28;20043;-88
2023/05/29 08:45:18;;;;;;;6.72;3.40;;;;;;;23.67;44.61;100742.81;5074854;28;20119;-86
2023/05/29 08:48:00;;;;;;;5.95;3.22;;;;;;;23.77;46.05;100719.28;5076002;28;20380;-87
2023/05/29 08:51:00;;;;;;;;;;;;;;;;;;;;;
2023/05/29 08:53:57;;;;;;;7.15;3.50;;;;;;;23.90;44.17;100731.63;5104492;28;20040;-86
2023/05/29 08:56:27;;;;;;;7.25;3.63;;;;;;;23.86;44.79;100739.19;5089254;28;20075;-87
2023/05/29 08:59:02;;;;;;;6.05;3.42;;;;;;;23.95;43.71;100749.09;5084369;28;20087;-88
2023/05/29 09:01:36;;;;;;;7.32;3.72;;;;;;;23.93;43.95;100747.53;5084429;28;20051;-88
2023/05/29 09:04:18;;;;;;;5.13;3.63;;;;;;;23.21;44.29;100686.88;5106657;28;20065;-87
2023/05/29 09:06:47;;;;;;;5.45;3.53;;;;;;;23.44;45.75;100744.16;5104371;28;20117;-88
2023/05/29 09:09:16;;;;;;;7.95;3.88;;;;;;;23.48;45.59;100744.69;5103761;28;20099;-87
2023/05/29 09:11:54;;;;;;;6.13;3.53;;;;;;;23.43;46.10;100734.34;5087169;28;20396;-87
2023/05/29 09:14:37;;;;;;;6.57;3.35;;;;;;;23.56;44.94;100742.16;5087113;28;20094;-86
2023/05/29 09:17:08;;;;;;;5.93;3.40;;;;;;;23.42;44.73;100743.44;5105869;28;20048;-86
2023/05/29 09:19:45;;;;;;;7.22;4.03;;;;;;;22.98;44.08;100720.63;5104639;28;20044;-88
2023/05/29 09:22:31;;;;;;;5.10;3.28;;;;;;;23.05;44.12;100743.34;5092874;28;20077;-87
2023/05/29 09:24:59;;;;;;;6.30;3.40;;;;;;;23.03;44.99;100748.91;5070417;28;20040;-87
2023/05/29 09:27:40;;;;;;;4.85;3.63;;;;;;;23.07;45.83;100746.75;5080541;28;20045;-87
2023/05/29 09:30:09;;;;;;;6.65;3.60;;;;;;;22.73;46.42;100708.50;5063868;28;20041;-87
2023/05/29 09:32:42;;;;;;;8.07;3.75;;;;;;;22.79;45.91;100737.69;5045800;28;20068;-87
2023/05/29 09:35:12;;;;;;;7.03;3.67;;;;;;;22.89;45.02;100743.06;5063656;28;20067;-87
2023/05/29 09:37:53;;;;;;;11.05;4.03;;;;;;;22.74;44.62;100719.19;5047731;28;20040;-87
2023/05/29 09:40:21;;;;;;;6.32;3.58;;;;;;;22.81;44.86;100751.91;5047169;28;20076;-87
2023/05/29 09:42:50;;;;;;;5.20;3.10;;;;;;;22.66;44.73;100732.53;5047098;28;20049;-88
2023/05/29 09:45:18;;;;;;;6.38;3.40;;;;;;;22.77;44.38;100749.63;5029454;28;20053;-88
2023/05/29 09:47:44;;;;;;;6.20;3.85;;;;;;;22.79;44.35;100747.63;5064427;28;20041;-88
2023/05/29 09:50:22;;;;;;;6.07;3.20;;;;;;;22.82;44.65;100736.56;5031577;28;20056;-88
2023/05/29 09:52:57;;;;;;;5.97;2.85;;;;;;;22.95;44.33;100737.97;5047546;28;20044;-88
2023/05/29 09:55:33;;;;;;;5.32;2.72;;;;;;;23.14;43.46;100730.84;5050284;28;20044;-87
2023/05/29 09:58:00;;;;;;;6.17;3.37;;;;;;;23.20;42.27;100728.41;5047618;28;20036;-87
2023/05/29 10:00:48;;;;;;;7.13;3.00;;;;;;;23.09;42.70;100736.69;5054094;28;20044;-87
2023/05/29 10:03:57;;;;;;;4.75;3.20;;;;;;;22.95;44.24;100732.56;5067495;28;20059;-87
2023/05/29 10:06:25;;;;;;;5.05;3.50;;;;;;;22.80;42.99;100696.19;5035528;28;20055;-87
2023/05/29 10:09:10;;;;;;;7.53;3.50;;;;;;;23.07;41.89;100717.06;5068891;28;20032;-86
2023/05/29 10:11:43;;;;;;;5.22;3.30;;;;;;;23.25;41.58;100726.13;5039017;28;20055;-89
2023/05/29 10:14:25;;;;;;;5.95;3.25;;;;;;;23.30;42.06;100726.53;5070003;28;20052;-87
2023/05/29 10:16:58;;;;;;;5.13;3.20;;;;;;;23.32;42.12;100712.88;5052092;28;20044;-88
2023/05/29 10:19:42;;;;;;;6.50;3.40;;;;;;;23.29;40.40;100678.91;5053591;28;20092;-87
2023/05/29 10:22:34;;;;;;;4.65;3.20;;;;;;;23.53;40.38;100727.06;5056291;28;20048;-85
2023/05/29 10:28:47;;;;;;;6.32;3.30;;;;;;;23.42;40.47;100705.59;5092302;28;20070;-86
2023/05/29 10:32:13;;;;;;;4.47;3.20;;;;;;;23.73;42.10;100735.97;5095102;28;20477;-87
2023/05/29 10:35:17;;;;;;;4.63;3.42;;;;;;;23.93;40.80;100734.88;5110920;28;20040;-86
2023/05/29 10:48:41;;;;;;;4.70;3.13;;;;;;;24.41;39.95;100729.22;5081127;28;20203;-89
2023/05/29 10:51:25;;;;;;;5.93;3.58;;;;;;;24.03;39.72;100700.53;5097017;28;20048;-87
2023/05/29 10:53:57;;;;;;;7.28;3.50;;;;;;;24.19;40.29;100720.66;5062952;28;20045;-89
2023/05/29 10:56:29;;;;;;;5.53;3.03;;;;;;;24.26;39.85;100719.06;5075128;28;20489;-87
2023/05/29 10:59:13;;;;;;;9.60;3.53;;;;;;;24.35;40.39;100726.28;5088033;28;20041;-90
2023/05/29 11:01:40;;;;;;;6.65;3.55;;;;;;;24.54;41.28;100731.56;5041613;28;20047;-87
2023/05/29 11:04:17;;;;;;;6.95;3.20;;;;;;;24.61;39.80;100729.06;5058296;28;20066;-89
2023/05/29 11:06:56;;;;;;;5.68;3.10;;;;;;;24.54;40.36;100730.72;5054589;28;20108;-88
2023/05/29 11:09:37;;;;;;;7.28;3.42;;;;;;;24.37;40.88;100705.31;5046636;28;20060;-89
2023/05/29 11:12:33;;;;;;;11.38;3.20;;;;;;;24.55;39.53;100711.59;5057719;28;20132;-89
2023/05/29 11:15:14;;;;;;;6.43;3.80;;;;;;;24.55;40.95;100718.88;5038355;28;20053;-88
2023/05/29 11:17:53;;;;;;;8.40;3.45;;;;;;;24.24;39.35;100661.56;5040202;28;20037;-88
2023/05/29 11:20:37;;;;;;;6.93;3.65;;;;;;;24.62;41.04;100709.97;5038582;28;20041;-88
2023/05/29 11:23:08;;;;;;;8.02;3.22;;;;;;;24.56;40.41;100667.25;5037988;28;20045;-88
2023/05/29 11:25:44;;;;;;;4.80;3.00;;;;;;;24.97;39.58;100690.16;5039870;28;20062;-88
2023/05/29 11:28:12;;;;;;;7.25;3.38;;;;;;;24.95;39.36;100688.63;5037866;28;20136;-89
2023/05/29 11:30:48;;;;;;;9.10;3.83;;;;;;;25.03;39.25;100691.38;5061396;28;20051;-89
2023/05/29 11:33:32;;;;;;;6.78;3.63;;;;;;;24.72;38.88;100637.59;5077149;28;20044;-89
2023/05/29 11:36:06;;;;;;;5.28;3.08;;;;;;;24.94;37.57;100667.94;5079543;28;20049;-89
2023/05/29 11:38:48;;;;;;;6.63;3.42;;;;;;;24.88;38.39;100692.91;5073645;28;20101;-89
2023/05/29 11:41:18;;;;;;;8.13;3.50;;;;;;;25.02;38.40;100689.69;5058324;28;20045;-89
2023/05/29 11:43:59;;;;;;;22.00;3.45;;;;;;;25.19;37.91;100702.34;5058501;28;20075;-88
2023/05/29 11:46:32;;;;;;;6.60;3.88;;;;;;;25.15;37.26;100679.28;5057956;28;20041;-88
2023/05/29 11:49:02;;;;;;;4.35;3.30;;;;;;;25.26;37.41;100680.88;5050503;28;20041;-88
2023/05/29 11:51:34;;;;;;;7.40;3.25;;;;;;;25.25;37.62;100693.56;5049272;28;20097;-89
2023/05/29 11:54:07;;;;;;;4.25;3.10;;;;;;;25.30;37.74;100683.13;5049644;28;20045;-89
2023/05/29 11:56:49;;;;;;;4.35;3.50;;;;;;;25.55;35.97;100672.41;5051787;28;20077;-89
2023/05/29 11:59:21;;;;;;;4.45;3.00;;;;;;;25.69;36.65;100675.38;5053782;28;20071;-88
2023/05/29 12:02:03;;;;;;;7.47;3.40;;;;;;;25.91;36.08;100676.66;5050433;28;20045;-89
2023/05/29 12:04:34;;;;;;;5.93;3.00;;;;;;;25.96;35.18;100673.47;5032185;28;20065;-88
2023/05/29 12:07:01;;;;;;;4.93;3.47;;;;;;;25.59;35.66;100671.91;5045048;28;20049;-88
2023/05/29 12:09:29;;;;;;;7.38;3.38;;;;;;;25.57;35.32;100659.53;5044291;28;20069;-87
2023/05/29 12:12:11;;;;;;;6.72;2.90;;;;;;;25.44;33.57;100625.59;5034446;28;20049;-89